Natchez, Mississippi
Current Conditions -  °F | °C
As of 6:15 AM on Friday 28 Nov 2014 (Local Time) from KHEZ Reporting Station
Clear Clear  
Wind Chill: 31°   Ceiling: Unl
Heat Index: 36°   Visibility: 10mi
Dew Point: 28°   Wind: 6mph
Humidity: 75%   Direction: 130°SE
Pressure: 30.42"   Gusts: NA
Location:  31.56°N, 91.4°W
Report Text: KHEZ 281215Z AUTO 13005KT 10SM CLR 02/M02 A3042 RMK AO1
Loading
Personal Weather Stations






























Interactive Weather Map New forecast layout! Learn more

10-Day Weather Forecast

Advertisements
Track Severe Weather on mobile